Aviation Digital Data Service (ADDS)

Output produced by METARs form (2311 UTC 20 January 2019)
found at http://www.aviationweather.gov/metar/data/
 
METAR text: LTAI 202250Z 04004KT 4000 -SHRA BKN030 10/09 Q1020 NOSIG RMK RWY18C 04004KT 010V070 RWY36R 36004KT RWY18L 01003KT
Conditions at: LTAI (ANTALYA (CIV/MIL, TR) observed 2250 UTC 20 January 2019
Temperature: 10.0°C (50°F)
Dewpoint: 9.0°C (48°F) [RH = 93%]
Pressure (altimeter): 30.12 inches Hg (1020.0 mb)
Winds: from the NE (40 degrees) at 5 MPH (4 knots; 2.1 m/s)
Visibility: 2.49 miles (4.01 km)
Ceiling: 3000 feet AGL
Clouds: broken clouds at 3000 feet AGL
Weather: -SHRA  (light rain showers)

METAR text: LTAI 202220Z 03006KT 6000 -SHRA BKN030 10/09 Q1020 NOSIG RMK RWY18C 01003KT RWY36R 35004KT RWY18L 02003KT
Conditions at: LTAI (ANTALYA (CIV/MIL, TR) observed 2220 UTC 20 January 2019
Temperature: 10.0°C (50°F)
Dewpoint: 9.0°C (48°F) [RH = 93%]
Pressure (altimeter): 30.12 inches Hg (1020.0 mb)
Winds: from the NNE (30 degrees) at 7 MPH (6 knots; 3.1 m/s)
Visibility: 4 miles ( 6 km)
Ceiling: 3000 feet AGL
Clouds: broken clouds at 3000 feet AGL
Weather: -SHRA  (light rain showers)

METAR text: LTAI 202150Z 36004KT 9999 -SHRA BKN030 09/09 Q1020 NOSIG RMK RWY18C 36003KT RWY36R 35004KT RWY18L VRB02KT
Conditions at: LTAI (ANTALYA (CIV/MIL, TR) observed 2150 UTC 20 January 2019
Temperature: 9.0°C (48°F)
Dewpoint: 9.0°C (48°F) [RH = 100%]
Pressure (altimeter): 30.12 inches Hg (1020.0 mb)
Winds: from the N (360 degrees) at 5 MPH (4 knots; 2.1 m/s)
Visibility: 6 or more miles (10+ km)
Ceiling: 3000 feet AGL
Clouds: broken clouds at 3000 feet AGL
Weather: -SHRA  (light rain showers)

METAR text: LTAI 202120Z VRB04KT 7000 -SHRA BKN025 10/08 Q1020 NOSIG RMK RWY18C VRB01KT RWY36R VRB02KT RWY18L 00000KT
Conditions at: LTAI (ANTALYA (CIV/MIL, TR) observed 2120 UTC 20 January 2019
Temperature: 10.0°C (50°F)
Dewpoint: 8.0°C (46°F) [RH = 87%]
Pressure (altimeter): 30.12 inches Hg (1020.0 mb)
Winds: variable direction winds at 5 MPH (4 knots; 2.1 m/s)
Visibility: 4 miles ( 7 km)
Ceiling: 2500 feet AGL
Clouds: broken clouds at 2500 feet AGL
Weather: -SHRA  (light rain showers)

METAR text: LTAI 202115Z VRB02KT 9999 -SHRA BKN025 10/09 Q1020 NOSIG RMK RWY18C 35002KT RWY36R VRB01KT RWY18L VRB01KT
Conditions at: LTAI (ANTALYA (CIV/MIL, TR) observed 2115 UTC 20 January 2019
Temperature: 10.0°C (50°F)
Dewpoint: 9.0°C (48°F) [RH = 93%]
Pressure (altimeter): 30.12 inches Hg (1020.0 mb)
Winds: variable direction winds at 2 MPH (2 knots; 1.0 m/s)
Visibility: 6 or more miles (10+ km)
Ceiling: 2500 feet AGL
Clouds: broken clouds at 2500 feet AGL
Weather: -SHRA  (light rain showers)

METAR text: LTAI 202050Z 32004KT 260V350 9999 BKN025 09/08 Q1020 NOSIG RMK RWY18C 32002KT RWY36R 32003KT RWY18L 31002KT
Conditions at: LTAI (ANTALYA (CIV/MIL, TR) observed 2050 UTC 20 January 2019
Temperature: 9.0°C (48°F)
Dewpoint: 8.0°C (46°F) [RH = 93%]
Pressure (altimeter): 30.12 inches Hg (1020.0 mb)
Winds: from the NW (320 degrees) at 5 MPH (4 knots; 2.1 m/s)
Visibility: 6 or more miles (10+ km)
Ceiling: 2500 feet AGL
Clouds: broken clouds at 2500 feet AGL
Weather: no significant weather observed at this time

METAR text: LTAI 202020Z 34004KT 260V020 9999 BKN025 10/08 Q1020 NOSIG RMK RWY18C 34003KT RWY36R 35004KT RWY18L 31003KT
Conditions at: LTAI (ANTALYA (CIV/MIL, TR) observed 2020 UTC 20 January 2019
Temperature: 10.0°C (50°F)
Dewpoint: 8.0°C (46°F) [RH = 87%]
Pressure (altimeter): 30.12 inches Hg (1020.0 mb)
Winds: from the NNW (340 degrees) at 5 MPH (4 knots; 2.1 m/s)
Visibility: 6 or more miles (10+ km)
Ceiling: 2500 feet AGL
Clouds: broken clouds at 2500 feet AGL
Weather: no significant weather observed at this time

METAR text: LTAI 201950Z 34004KT 9999 BKN025 10/08 Q1020 RESHRA NOSIG RMK RWY18C 33004KT RWY36R 34004KT RWY18L 36004KT 320V020
Conditions at: LTAI (ANTALYA (CIV/MIL, TR) observed 1950 UTC 20 January 2019
Temperature: 10.0°C (50°F)
Dewpoint: 8.0°C (46°F) [RH = 87%]
Pressure (altimeter): 30.12 inches Hg (1020.0 mb)
Winds: from the NNW (340 degrees) at 5 MPH (4 knots; 2.1 m/s)
Visibility: 6 or more miles (10+ km)
Ceiling: 2500 feet AGL
Clouds: broken clouds at 2500 feet AGL
Weather: no significant weather observed at this time

METAR text: LTAI 201920Z 34005KT 300V360 9999 -SHRA BKN025 10/08 Q1021 NOSIG RMK RWY18C 29007KT RWY36R 32004KT 290V360 RWY18L 32006KT
Conditions at: LTAI (ANTALYA (CIV/MIL, TR) observed 1920 UTC 20 January 2019
Temperature: 10.0°C (50°F)
Dewpoint: 8.0°C (46°F) [RH = 87%]
Pressure (altimeter): 30.15 inches Hg (1021.0 mb)
Winds: from the NNW (340 degrees) at 6 MPH (5 knots; 2.6 m/s)
Visibility: 6 or more miles (10+ km)
Ceiling: 2500 feet AGL
Clouds: broken clouds at 2500 feet AGL
Weather: -SHRA  (light rain showers)

METAR text: LTAI 201850Z 31006KT 9999 -SHRA BKN030 10/08 Q1021 NOSIG RMK RWY18C 28006KT RWY36R 30006KT 270V340 RWY18L 31005KT 290V350
Conditions at: LTAI (ANTALYA (CIV/MIL, TR) observed 1850 UTC 20 January 2019
Temperature: 10.0°C (50°F)
Dewpoint: 8.0°C (46°F) [RH = 87%]
Pressure (altimeter): 30.15 inches Hg (1021.0 mb)
Winds: from the NW (310 degrees) at 7 MPH (6 knots; 3.1 m/s)
Visibility: 6 or more miles (10+ km)
Ceiling: 3000 feet AGL
Clouds: broken clouds at 3000 feet AGL
Weather: -SHRA  (light rain showers)

METAR text: LTAI 201838Z 31005KT 270V350 9999 -SHRA BKN025 10/09 Q1021 NOSIG RMK RWY18C 33004KT 290V060 RWY36R 34005KT 310V020 RWY18L 01004KT
Conditions at: LTAI (ANTALYA (CIV/MIL, TR) observed 1838 UTC 20 January 2019
Temperature: 10.0°C (50°F)
Dewpoint: 9.0°C (48°F) [RH = 93%]
Pressure (altimeter): 30.15 inches Hg (1021.0 mb)
Winds: from the NW (310 degrees) at 6 MPH (5 knots; 2.6 m/s)
Visibility: 6 or more miles (10+ km)
Ceiling: 2500 feet AGL
Clouds: broken clouds at 2500 feet AGL
Weather: -SHRA  (light rain showers)

METAR text: LTAI 201820Z 03004KT 9999 BKN025 10/08 Q1021 RESHRA NOSIG RMK RWY18C 03004KT 360V060 RWY36R 02003KT 360V060 RWY18L 03005KT
Conditions at: LTAI (ANTALYA (CIV/MIL, TR) observed 1820 UTC 20 January 2019
Temperature: 10.0°C (50°F)
Dewpoint: 8.0°C (46°F) [RH = 87%]
Pressure (altimeter): 30.15 inches Hg (1021.0 mb)
Winds: from the NNE (30 degrees) at 5 MPH (4 knots; 2.1 m/s)
Visibility: 6 or more miles (10+ km)
Ceiling: 2500 feet AGL
Clouds: broken clouds at 2500 feet AGL
Weather: no significant weather observed at this time

METAR text: LTAI 201750Z 03006KT 9999 -SHRA BKN025 10/08 Q1021 NOSIG RMK RWY18C 03005KT 360V070 RWY36R 03005KT RWY18L 04005KT
Conditions at: LTAI (ANTALYA (CIV/MIL, TR) observed 1750 UTC 20 January 2019
Temperature: 10.0°C (50°F)
Dewpoint: 8.0°C (46°F) [RH = 87%]
Pressure (altimeter): 30.15 inches Hg (1021.0 mb)
Winds: from the NNE (30 degrees) at 7 MPH (6 knots; 3.1 m/s)
Visibility: 6 or more miles (10+ km)
Ceiling: 2500 feet AGL
Clouds: broken clouds at 2500 feet AGL
Weather: -SHRA  (light rain showers)

METAR text: LTAI 201720Z 04006KT 9999 -SHRA BKN025 10/08 Q1021 NOSIG RMK RWY18C 03006KT RWY36R 03006KT RWY18L 04007KT
Conditions at: LTAI (ANTALYA (CIV/MIL, TR) observed 1720 UTC 20 January 2019
Temperature: 10.0°C (50°F)
Dewpoint: 8.0°C (46°F) [RH = 87%]
Pressure (altimeter): 30.15 inches Hg (1021.0 mb)
Winds: from the NE (40 degrees) at 7 MPH (6 knots; 3.1 m/s)
Visibility: 6 or more miles (10+ km)
Ceiling: 2500 feet AGL
Clouds: broken clouds at 2500 feet AGL
Weather: -SHRA  (light rain showers)

METAR text: LTAI 201650Z 03007KT 9999 -SHRA BKN025 11/08 Q1021 NOSIG RMK RWY18C 03006KT RWY36R 03008KT RWY18L 04006KT
Conditions at: LTAI (ANTALYA (CIV/MIL, TR) observed 1650 UTC 20 January 2019
Temperature: 11.0°C (52°F)
Dewpoint: 8.0°C (46°F) [RH = 82%]
Pressure (altimeter): 30.15 inches Hg (1021.0 mb)
Winds: from the NNE (30 degrees) at 8 MPH (7 knots; 3.6 m/s)
Visibility: 6 or more miles (10+ km)
Ceiling: 2500 feet AGL
Clouds: broken clouds at 2500 feet AGL
Weather: -SHRA  (light rain showers)

METAR text: LTAI 201620Z 02006KT 9999 -SHRA BKN025 11/08 Q1021 NOSIG RMK RWY18C 01005KT 340V040 RWY36R 02007KT RWY18L 03005KT 360V060
Conditions at: LTAI (ANTALYA (CIV/MIL, TR) observed 1620 UTC 20 January 2019
Temperature: 11.0°C (52°F)
Dewpoint: 8.0°C (46°F) [RH = 82%]
Pressure (altimeter): 30.15 inches Hg (1021.0 mb)
Winds: from the NNE (20 degrees) at 7 MPH (6 knots; 3.1 m/s)
Visibility: 6 or more miles (10+ km)
Ceiling: 2500 feet AGL
Clouds: broken clouds at 2500 feet AGL
Weather: -SHRA  (light rain showers)

METAR text: LTAI 201550Z 02005KT 350V050 9999 -SHRA BKN025 11/09 Q1020 NOSIG RMK RWY18C 01005KT RWY36R 02007KT RWY18L 03006KT
Conditions at: LTAI (ANTALYA (CIV/MIL, TR) observed 1550 UTC 20 January 2019
Temperature: 11.0°C (52°F)
Dewpoint: 9.0°C (48°F) [RH = 87%]
Pressure (altimeter): 30.12 inches Hg (1020.0 mb)
Winds: from the NNE (20 degrees) at 6 MPH (5 knots; 2.6 m/s)
Visibility: 6 or more miles (10+ km)
Ceiling: 2500 feet AGL
Clouds: broken clouds at 2500 feet AGL
Weather: -SHRA  (light rain showers)

METAR text: LTAI 201520Z 36007KT 9999 -SHRA BKN025 11/09 Q1020 NOSIG RMK RWY18C 36005KT RWY36R 01005KT RWY18L 03004KT 350V050
Conditions at: LTAI (ANTALYA (CIV/MIL, TR) observed 1520 UTC 20 January 2019
Temperature: 11.0°C (52°F)
Dewpoint: 9.0°C (48°F) [RH = 87%]
Pressure (altimeter): 30.12 inches Hg (1020.0 mb)
Winds: from the N (360 degrees) at 8 MPH (7 knots; 3.6 m/s)
Visibility: 6 or more miles (10+ km)
Ceiling: 2500 feet AGL
Clouds: broken clouds at 2500 feet AGL
Weather: -SHRA  (light rain showers)

METAR text: LTAI 201450Z 36007KT 9999 -SHRA BKN025 11/09 Q1020 NOSIG RMK RWY18C 36006KT RWY36R 01006KT RWY18L 01004KT
Conditions at: LTAI (ANTALYA (CIV/MIL, TR) observed 1450 UTC 20 January 2019
Temperature: 11.0°C (52°F)
Dewpoint: 9.0°C (48°F) [RH = 87%]
Pressure (altimeter): 30.12 inches Hg (1020.0 mb)
Winds: from the N (360 degrees) at 8 MPH (7 knots; 3.6 m/s)
Visibility: 6 or more miles (10+ km)
Ceiling: 2500 feet AGL
Clouds: broken clouds at 2500 feet AGL
Weather: -SHRA  (light rain showers)

METAR text: LTAI 201420Z 36009KT 9999 -SHRA BKN025 11/09 Q1020 NOSIG RMK RWY18C 35009KT RWY36R 35007KT RWY18L 34007KT
Conditions at: LTAI (ANTALYA (CIV/MIL, TR) observed 1420 UTC 20 January 2019
Temperature: 11.0°C (52°F)
Dewpoint: 9.0°C (48°F) [RH = 87%]
Pressure (altimeter): 30.12 inches Hg (1020.0 mb)
Winds: from the N (360 degrees) at 10 MPH (9 knots; 4.6 m/s)
Visibility: 6 or more miles (10+ km)
Ceiling: 2500 feet AGL
Clouds: broken clouds at 2500 feet AGL
Weather: -SHRA  (light rain showers)

METAR text: LTAI 201350Z 35011KT 9999 -SHRA BKN025 11/09 Q1020 NOSIG RMK RWY18C 35008KT RWY36R 35009KT RWY18L 35004KT
Conditions at: LTAI (ANTALYA (CIV/MIL, TR) observed 1350 UTC 20 January 2019
Temperature: 11.0°C (52°F)
Dewpoint: 9.0°C (48°F) [RH = 87%]
Pressure (altimeter): 30.12 inches Hg (1020.0 mb)
Winds: from the N (350 degrees) at 13 MPH (11 knots; 5.7 m/s)
Visibility: 6 or more miles (10+ km)
Ceiling: 2500 feet AGL
Clouds: broken clouds at 2500 feet AGL
Weather: -SHRA  (light rain showers)

METAR text: LTAI 201320Z 35011KT 9999 -SHRA BKN025 11/09 Q1020 NOSIG RMK RWY18C 34008KT RWY36R 35011KT RWY18L 35008KT
Conditions at: LTAI (ANTALYA (CIV/MIL, TR) observed 1320 UTC 20 January 2019
Temperature: 11.0°C (52°F)
Dewpoint: 9.0°C (48°F) [RH = 87%]
Pressure (altimeter): 30.12 inches Hg (1020.0 mb)
Winds: from the N (350 degrees) at 13 MPH (11 knots; 5.7 m/s)
Visibility: 6 or more miles (10+ km)
Ceiling: 2500 feet AGL
Clouds: broken clouds at 2500 feet AGL
Weather: -SHRA  (light rain showers)

METAR text: LTAI 201250Z 02009KT 9999 -SHRA BKN025 11/09 Q1020 RESHRA NOSIG RMK RWY18C 36010KT RWY36R 36010KT RWY18L 35006KT 320V020
Conditions at: LTAI (ANTALYA (CIV/MIL, TR) observed 1250 UTC 20 January 2019
Temperature: 11.0°C (52°F)
Dewpoint: 9.0°C (48°F) [RH = 87%]
Pressure (altimeter): 30.12 inches Hg (1020.0 mb)
Winds: from the NNE (20 degrees) at 10 MPH (9 knots; 4.6 m/s)
Visibility: 6 or more miles (10+ km)
Ceiling: 2500 feet AGL
Clouds: broken clouds at 2500 feet AGL
Weather: -SHRA  (light rain showers)

METAR text: LTAI 201220Z 01011KT 4000 1800S SHRA BR BKN025 11/09 Q1021 BECMG 9999 NSW
Conditions at: LTAI (ANTALYA (CIV/MIL, TR) observed 1220 UTC 20 January 2019
Temperature: 11.0°C (52°F)
Dewpoint: 9.0°C (48°F) [RH = 87%]
Pressure (altimeter): 30.15 inches Hg (1021.0 mb)
Winds: from the N (10 degrees) at 13 MPH (11 knots; 5.7 m/s)
Visibility: 2.49 miles (4.01 km)
Ceiling: 2500 feet AGL
Clouds: broken clouds at 2500 feet AGL
Weather: SHRA BR  (rain showers, mist)

METAR text: LTAI 201203Z 36011KT 4000 1800S -SHRA BR BKN025 11/09 Q1021 BECMG 9999 NSW RMK RWY18C 35012KT RWY36R 34014KT RWY18L 34011KT
Conditions at: LTAI (ANTALYA (CIV/MIL, TR) observed 1203 UTC 20 January 2019
Temperature: 11.0°C (52°F)
Dewpoint: 9.0°C (48°F) [RH = 87%]
Pressure (altimeter): 30.15 inches Hg (1021.0 mb)
Winds: from the N (360 degrees) at 13 MPH (11 knots; 5.7 m/s)
Visibility: 2.49 miles (4.01 km)
Ceiling: 2500 feet AGL
Clouds: broken clouds at 2500 feet AGL
Weather: -SHRA BR  (light rain showers, mist)

METAR text: LTAI 201150Z 02013KT 9999 -SHRA BKN025 11/09 Q1021 RESHRA BECMG VRB02KT
Conditions at: LTAI (ANTALYA (CIV/MIL, TR) observed 1150 UTC 20 January 2019
Temperature: 11.0°C (52°F)
Dewpoint: 9.0°C (48°F) [RH = 87%]
Pressure (altimeter): 30.15 inches Hg (1021.0 mb)
Winds: from the NNE (20 degrees) at 15 MPH (13 knots; 6.7 m/s)
Visibility: 6 or more miles (10+ km)
Ceiling: 2500 feet AGL
Clouds: broken clouds at 2500 feet AGL
Weather: -SHRA  (light rain showers)

METAR text: LTAI 201133Z 02009KT 4000 SHRA BR BKN025 10/09 Q1021 BECMG 9999 NSW RMK RWY18C 01007KT RWY36R 35010KT RWY18L 35009KT
Conditions at: LTAI (ANTALYA (CIV/MIL, TR) observed 1133 UTC 20 January 2019
Temperature: 10.0°C (50°F)
Dewpoint: 9.0°C (48°F) [RH = 93%]
Pressure (altimeter): 30.15 inches Hg (1021.0 mb)
Winds: from the NNE (20 degrees) at 10 MPH (9 knots; 4.6 m/s)
Visibility: 2.49 miles (4.01 km)
Ceiling: 2500 feet AGL
Clouds: broken clouds at 2500 feet AGL
Weather: SHRA BR  (rain showers, mist)

METAR text: LTAI 201120Z 02009KT 4900 1800S -SHRA BR BKN030 11/09 Q1021 BECMG 9999 NSW
Conditions at: LTAI (ANTALYA (CIV/MIL, TR) observed 1120 UTC 20 January 2019
Temperature: 11.0°C (52°F)
Dewpoint: 9.0°C (48°F) [RH = 87%]
Pressure (altimeter): 30.15 inches Hg (1021.0 mb)
Winds: from the NNE (20 degrees) at 10 MPH (9 knots; 4.6 m/s)
Visibility: 3 miles ( 5 km)
Ceiling: 3000 feet AGL
Clouds: broken clouds at 3000 feet AGL
Weather: -SHRA BR  (light rain showers, mist)

METAR text: LTAI 201112Z 01010KT 4600 2000S -SHRA BKN025 11/09 Q1021 BECMG 9999 NSW RMK RWY18C 36008KT RWY36R 35012KT RWY18L 35009KT 330V030
Conditions at: LTAI (ANTALYA (CIV/MIL, TR) observed 1112 UTC 20 January 2019
Temperature: 11.0°C (52°F)
Dewpoint: 9.0°C (48°F) [RH = 87%]
Pressure (altimeter): 30.15 inches Hg (1021.0 mb)
Winds: from the N (10 degrees) at 12 MPH (10 knots; 5.1 m/s)
Visibility: 2.86 miles (4.60 km)
Ceiling: 2500 feet AGL
Clouds: broken clouds at 2500 feet AGL
Weather: -SHRA  (light rain showers)

METAR text: LTAI 201050Z 35010KT 7000 -SHRA BKN025 11/09 Q1021 NOSIG RMK RWY18C 35008KT RWY36R 33010KT RWY18L 34009KT
Conditions at: LTAI (ANTALYA (CIV/MIL, TR) observed 1050 UTC 20 January 2019
Temperature: 11.0°C (52°F)
Dewpoint: 9.0°C (48°F) [RH = 87%]
Pressure (altimeter): 30.15 inches Hg (1021.0 mb)
Winds: from the N (350 degrees) at 12 MPH (10 knots; 5.1 m/s)
Visibility: 4 miles ( 7 km)
Ceiling: 2500 feet AGL
Clouds: broken clouds at 2500 feet AGL
Weather: -SHRA  (light rain showers)

METAR text: LTAI 201020Z 34008KT 4500 1800S -SHRA BR BKN025 11/10 Q1022 BECMG 9999 NSW
Conditions at: LTAI (ANTALYA (CIV/MIL, TR) observed 1020 UTC 20 January 2019
Temperature: 11.0°C (52°F)
Dewpoint: 10.0°C (50°F) [RH = 94%]
Pressure (altimeter): 30.18 inches Hg (1022.0 mb)
Winds: from the NNW (340 degrees) at 9 MPH (8 knots; 4.1 m/s)
Visibility: 2.80 miles (4.51 km)
Ceiling: 2500 feet AGL
Clouds: broken clouds at 2500 feet AGL
Weather: -SHRA BR  (light rain showers, mist)

METAR text: LTAI 201015Z 33007KT 290V350 4800 2000S -SHRA BR BKN025 11/09 Q1022 BECMG 9999 NSW RMK RWY18C 32006KT RWY36R 33006KT RWY18L 32005KT
Conditions at: LTAI (ANTALYA (CIV/MIL, TR) observed 1015 UTC 20 January 2019
Temperature: 11.0°C (52°F)
Dewpoint: 9.0°C (48°F) [RH = 87%]
Pressure (altimeter): 30.18 inches Hg (1022.0 mb)
Winds: from the NNW (330 degrees) at 8 MPH (7 knots; 3.6 m/s)
Visibility: 2.98 miles (4.80 km)
Ceiling: 2500 feet AGL
Clouds: broken clouds at 2500 feet AGL
Weather: -SHRA BR  (light rain showers, mist)

METAR text: LTAI 200950Z 34008KT 8000 -SHRA BKN030 11/10 Q1022 NOSIG RMK RWY18C 36005KT RWY36R 33008KT RWY18L 33008KT
Conditions at: LTAI (ANTALYA (CIV/MIL, TR) observed 0950 UTC 20 January 2019
Temperature: 11.0°C (52°F)
Dewpoint: 10.0°C (50°F) [RH = 94%]
Pressure (altimeter): 30.18 inches Hg (1022.0 mb)
Winds: from the NNW (340 degrees) at 9 MPH (8 knots; 4.1 m/s)
Visibility: 5 miles ( 8 km)
Ceiling: 3000 feet AGL
Clouds: broken clouds at 3000 feet AGL
Weather: -SHRA  (light rain showers)

METAR text: LTAI 200920Z 33007KT 8000 -SHRA BKN030 11/10 Q1022 NOSIG RMK RWY18C 32007KT RWY36R 33007KT RWY18L 33007KT
Conditions at: LTAI (ANTALYA (CIV/MIL, TR) observed 0920 UTC 20 January 2019
Temperature: 11.0°C (52°F)
Dewpoint: 10.0°C (50°F) [RH = 94%]
Pressure (altimeter): 30.18 inches Hg (1022.0 mb)
Winds: from the NNW (330 degrees) at 8 MPH (7 knots; 3.6 m/s)
Visibility: 5 miles ( 8 km)
Ceiling: 3000 feet AGL
Clouds: broken clouds at 3000 feet AGL
Weather: -SHRA  (light rain showers)

METAR text: LTAI 200850Z 33009KT 6000 -SHRA BKN025 11/10 Q1023 NOSIG RMK RWY18C 32007KT RWY36R 32009KT RWY18L 32007KT
Conditions at: LTAI (ANTALYA (CIV/MIL, TR) observed 0850 UTC 20 January 2019
Temperature: 11.0°C (52°F)
Dewpoint: 10.0°C (50°F) [RH = 94%]
Pressure (altimeter): 30.21 inches Hg (1023.0 mb)
Winds: from the NNW (330 degrees) at 10 MPH (9 knots; 4.6 m/s)
Visibility: 4 miles ( 6 km)
Ceiling: 2500 feet AGL
Clouds: broken clouds at 2500 feet AGL
Weather: -SHRA  (light rain showers)

METAR text: LTAI 200820Z 32007KT 4500 -SHRA BR BKN025 11/10 Q1023 BECMG 9999 NSW
Conditions at: LTAI (ANTALYA (CIV/MIL, TR) observed 0820 UTC 20 January 2019
Temperature: 11.0°C (52°F)
Dewpoint: 10.0°C (50°F) [RH = 94%]
Pressure (altimeter): 30.21 inches Hg (1023.0 mb)
Winds: from the NW (320 degrees) at 8 MPH (7 knots; 3.6 m/s)
Visibility: 2.80 miles (4.51 km)
Ceiling: 2500 feet AGL
Clouds: broken clouds at 2500 feet AGL
Weather: -SHRA BR  (light rain showers, mist)

METAR text: LTAI 200750Z 33004KT 300V020 4000 -SHRA BR BKN025 11/09 Q1023 BECMG 9999 NSW
Conditions at: LTAI (ANTALYA (CIV/MIL, TR) observed 0750 UTC 20 January 2019
Temperature: 11.0°C (52°F)
Dewpoint: 9.0°C (48°F) [RH = 87%]
Pressure (altimeter): 30.21 inches Hg (1023.0 mb)
Winds: from the NNW (330 degrees) at 5 MPH (4 knots; 2.1 m/s)
Visibility: 2.49 miles (4.01 km)
Ceiling: 2500 feet AGL
Clouds: broken clouds at 2500 feet AGL
Weather: -SHRA BR  (light rain showers, mist)

METAR text: LTAI 200720Z 34006KT 7000 -SHRA BKN030 10/09 Q1022 NOSIG RMK RWY18C 33006KT RWY36R 32006KT RWY18L 35004KT 330V030
Conditions at: LTAI (ANTALYA (CIV/MIL, TR) observed 0720 UTC 20 January 2019
Temperature: 10.0°C (50°F)
Dewpoint: 9.0°C (48°F) [RH = 93%]
Pressure (altimeter): 30.18 inches Hg (1022.0 mb)
Winds: from the NNW (340 degrees) at 7 MPH (6 knots; 3.1 m/s)
Visibility: 4 miles ( 7 km)
Ceiling: 3000 feet AGL
Clouds: broken clouds at 3000 feet AGL
Weather: -SHRA  (light rain showers)

METAR text: LTAI 200650Z 34007KT 7000 -SHRA BKN030 10/09 Q1022 NOSIG RMK RWY18C 32004KT RWY36R 33006KT RWY18L 32005KT 300V360
Conditions at: LTAI (ANTALYA (CIV/MIL, TR) observed 0650 UTC 20 January 2019
Temperature: 10.0°C (50°F)
Dewpoint: 9.0°C (48°F) [RH = 93%]
Pressure (altimeter): 30.18 inches Hg (1022.0 mb)
Winds: from the NNW (340 degrees) at 8 MPH (7 knots; 3.6 m/s)
Visibility: 4 miles ( 7 km)
Ceiling: 3000 feet AGL
Clouds: broken clouds at 3000 feet AGL
Weather: -SHRA  (light rain showers)

METAR text: LTAI 200620Z 33005KT 7000 -SHRA BKN030 09/09 Q1022 NOSIG RMK RWY18C 32004KT RWY36R 32006KT RWY18L 31004KT
Conditions at: LTAI (ANTALYA (CIV/MIL, TR) observed 0620 UTC 20 January 2019
Temperature: 9.0°C (48°F)
Dewpoint: 9.0°C (48°F) [RH = 100%]
Pressure (altimeter): 30.18 inches Hg (1022.0 mb)
Winds: from the NNW (330 degrees) at 6 MPH (5 knots; 2.6 m/s)
Visibility: 4 miles ( 7 km)
Ceiling: 3000 feet AGL
Clouds: broken clouds at 3000 feet AGL
Weather: -SHRA  (light rain showers)

METAR text: LTAI 200550Z 33004KT 300V020 9999 -SHRA BKN030 10/09 Q1022 NOSIG RMK RWY18C 33005KT RWY36R 34005KT RWY18L 33004KT
Conditions at: LTAI (ANTALYA (CIV/MIL, TR) observed 0550 UTC 20 January 2019
Temperature: 10.0°C (50°F)
Dewpoint: 9.0°C (48°F) [RH = 93%]
Pressure (altimeter): 30.18 inches Hg (1022.0 mb)
Winds: from the NNW (330 degrees) at 5 MPH (4 knots; 2.1 m/s)
Visibility: 6 or more miles (10+ km)
Ceiling: 3000 feet AGL
Clouds: broken clouds at 3000 feet AGL
Weather: -SHRA  (light rain showers)

METAR text: LTAI 200520Z 35008KT 9999 -SHRA BKN030 10/08 Q1022 NOSIG RMK RWY18C 01004KT RWY36R 35007KT RWY18L 35005KT
Conditions at: LTAI (ANTALYA (CIV/MIL, TR) observed 0520 UTC 20 January 2019
Temperature: 10.0°C (50°F)
Dewpoint: 8.0°C (46°F) [RH = 87%]
Pressure (altimeter): 30.18 inches Hg (1022.0 mb)
Winds: from the N (350 degrees) at 9 MPH (8 knots; 4.1 m/s)
Visibility: 6 or more miles (10+ km)
Ceiling: 3000 feet AGL
Clouds: broken clouds at 3000 feet AGL
Weather: -SHRA  (light rain showers)

METAR text: LTAI 200450Z 03008KT 9999 -SHRA BKN030 09/08 Q1022 NOSIG RMK RWY18C 04006KT 360V070 RWY36R 36006KT RWY18L 01004KT
Conditions at: LTAI (ANTALYA (CIV/MIL, TR) observed 0450 UTC 20 January 2019
Temperature: 9.0°C (48°F)
Dewpoint: 8.0°C (46°F) [RH = 93%]
Pressure (altimeter): 30.18 inches Hg (1022.0 mb)
Winds: from the NNE (30 degrees) at 9 MPH (8 knots; 4.1 m/s)
Visibility: 6 or more miles (10+ km)
Ceiling: 3000 feet AGL
Clouds: broken clouds at 3000 feet AGL
Weather: -SHRA  (light rain showers)

METAR text: LTAI 200420Z 05005KT 7000 -SHRA BKN030 09/08 Q1022 NOSIG
Conditions at: LTAI (ANTALYA (CIV/MIL, TR) observed 0420 UTC 20 January 2019
Temperature: 9.0°C (48°F)
Dewpoint: 8.0°C (46°F) [RH = 93%]
Pressure (altimeter): 30.18 inches Hg (1022.0 mb)
Winds: from the NE (50 degrees) at 6 MPH (5 knots; 2.6 m/s)
Visibility: 4 miles ( 7 km)
Ceiling: 3000 feet AGL
Clouds: broken clouds at 3000 feet AGL
Weather: -SHRA  (light rain showers)

METAR text: LTAI 200350Z 05005KT 010V080 8000 -SHRA BKN030 10/08 Q1022 NOSIG RMK RWY18C 05004KT 360V070 RWY36R 03005KT RWY18L 05005KT
Conditions at: LTAI (ANTALYA (CIV/MIL, TR) observed 0350 UTC 20 January 2019
Temperature: 10.0°C (50°F)
Dewpoint: 8.0°C (46°F) [RH = 87%]
Pressure (altimeter): 30.18 inches Hg (1022.0 mb)
Winds: from the NE (50 degrees) at 6 MPH (5 knots; 2.6 m/s)
Visibility: 5 miles ( 8 km)
Ceiling: 3000 feet AGL
Clouds: broken clouds at 3000 feet AGL
Weather: -SHRA  (light rain showers)

METAR text: LTAI 200320Z 36005KT 9999 -SHRA BKN030 10/08 Q1022 NOSIG RMK RWY18C 34006KT RWY36R 36005KT 310V030 RWY18L 35005KT 310V040
Conditions at: LTAI (ANTALYA (CIV/MIL, TR) observed 0320 UTC 20 January 2019
Temperature: 10.0°C (50°F)
Dewpoint: 8.0°C (46°F) [RH = 87%]
Pressure (altimeter): 30.18 inches Hg (1022.0 mb)
Winds: from the N (360 degrees) at 6 MPH (5 knots; 2.6 m/s)
Visibility: 6 or more miles (10+ km)
Ceiling: 3000 feet AGL
Clouds: broken clouds at 3000 feet AGL
Weather: -SHRA  (light rain showers)

METAR text: LTAI 200250Z 33006KT 9999 BKN030 10/08 Q1022 NOSIG RMK RWY18C 33005KT RWY36R 34003KT 300V010 RWY18L 32006KT
Conditions at: LTAI (ANTALYA (CIV/MIL, TR) observed 0250 UTC 20 January 2019
Temperature: 10.0°C (50°F)
Dewpoint: 8.0°C (46°F) [RH = 87%]
Pressure (altimeter): 30.18 inches Hg (1022.0 mb)
Winds: from the NNW (330 degrees) at 7 MPH (6 knots; 3.1 m/s)
Visibility: 6 or more miles (10+ km)
Ceiling: 3000 feet AGL
Clouds: broken clouds at 3000 feet AGL
Weather: no significant weather observed at this time

METAR text: LTAI 200220Z 32003KT 290V360 9999 BKN030 09/08 Q1022 NOSIG RMK RWY18C 32003KT RWY36R 31004KT RWY18L 31004KT
Conditions at: LTAI (ANTALYA (CIV/MIL, TR) observed 0220 UTC 20 January 2019
Temperature: 9.0°C (48°F)
Dewpoint: 8.0°C (46°F) [RH = 93%]
Pressure (altimeter): 30.18 inches Hg (1022.0 mb)
Winds: from the NW (320 degrees) at 3 MPH (3 knots; 1.5 m/s)
Visibility: 6 or more miles (10+ km)
Ceiling: 3000 feet AGL
Clouds: broken clouds at 3000 feet AGL
Weather: no significant weather observed at this time

METAR text: LTAI 200150Z 29004KT 9999 BKN030 10/08 Q1022 NOSIG RMK RWY18C VRB02KT RWY36R 32003KT 290V020 RWY18L 30003KT
Conditions at: LTAI (ANTALYA (CIV/MIL, TR) observed 0150 UTC 20 January 2019
Temperature: 10.0°C (50°F)
Dewpoint: 8.0°C (46°F) [RH = 87%]
Pressure (altimeter): 30.18 inches Hg (1022.0 mb)
Winds: from the WNW (290 degrees) at 5 MPH (4 knots; 2.1 m/s)
Visibility: 6 or more miles (10+ km)
Ceiling: 3000 feet AGL
Clouds: broken clouds at 3000 feet AGL
Weather: no significant weather observed at this time

METAR text: LTAI 200120Z 30005KT 9999 BKN030 10/08 Q1022 RESHRA NOSIG RMK RWY18C 33004KT RWY36R 29006KT RWY18L 31005KT
Conditions at: LTAI (ANTALYA (CIV/MIL, TR) observed 0120 UTC 20 January 2019
Temperature: 10.0°C (50°F)
Dewpoint: 8.0°C (46°F) [RH = 87%]
Pressure (altimeter): 30.18 inches Hg (1022.0 mb)
Winds: from the WNW (300 degrees) at 6 MPH (5 knots; 2.6 m/s)
Visibility: 6 or more miles (10+ km)
Ceiling: 3000 feet AGL
Clouds: broken clouds at 3000 feet AGL
Weather: no significant weather observed at this time

METAR text: LTAI 200050Z 32006KT 9999 -SHRA BKN030 09/08 Q1022 NOSIG
Conditions at: LTAI (ANTALYA (CIV/MIL, TR) observed 0050 UTC 20 January 2019
Temperature: 9.0°C (48°F)
Dewpoint: 8.0°C (46°F) [RH = 93%]
Pressure (altimeter): 30.18 inches Hg (1022.0 mb)
Winds: from the NW (320 degrees) at 7 MPH (6 knots; 3.1 m/s)
Visibility: 6 or more miles (10+ km)
Ceiling: 3000 feet AGL
Clouds: broken clouds at 3000 feet AGL
Weather: -SHRA  (light rain showers)

METAR text: LTAI 200020Z 32004KT 9999 -SHRA BKN030 09/08 Q1022 NOSIG RMK RWY18C 31001KT RWY36R 31005KT RWY18L 30004KT
Conditions at: LTAI (ANTALYA (CIV/MIL, TR) observed 0020 UTC 20 January 2019
Temperature: 9.0°C (48°F)
Dewpoint: 8.0°C (46°F) [RH = 93%]
Pressure (altimeter): 30.18 inches Hg (1022.0 mb)
Winds: from the NW (320 degrees) at 5 MPH (4 knots; 2.1 m/s)
Visibility: 6 or more miles (10+ km)
Ceiling: 3000 feet AGL
Clouds: broken clouds at 3000 feet AGL
Weather: -SHRA  (light rain showers)

METAR text: LTAI 192350Z VRB02KT 9000 BKN030 09/08 Q1022 NOSIG RMK RWY18C VRB02KT RWY36R 33003KT RWY18L 33003KT 300V010
Conditions at: LTAI (ANTALYA (CIV/MIL, TR) observed 2350 UTC 19 January 2019
Temperature: 9.0°C (48°F)
Dewpoint: 8.0°C (46°F) [RH = 93%]
Pressure (altimeter): 30.18 inches Hg (1022.0 mb)
Winds: variable direction winds at 2 MPH (2 knots; 1.0 m/s)
Visibility: 6 miles ( 9 km)
Ceiling: 3000 feet AGL
Clouds: broken clouds at 3000 feet AGL
Weather: no significant weather observed at this time

METAR text: LTAI 192320Z 34006KT 9999 BKN030 09/08 Q1022 NOSIG RMK RWY18C 32005KT RWY36R 35005KT RWY18L 34004KT
Conditions at: LTAI (ANTALYA (CIV/MIL, TR) observed 2320 UTC 19 January 2019
Temperature: 9.0°C (48°F)
Dewpoint: 8.0°C (46°F) [RH = 93%]
Pressure (altimeter): 30.18 inches Hg (1022.0 mb)
Winds: from the NNW (340 degrees) at 7 MPH (6 knots; 3.1 m/s)
Visibility: 6 or more miles (10+ km)
Ceiling: 3000 feet AGL
Clouds: broken clouds at 3000 feet AGL
Weather: no significant weather observed at this time

METAR text: LTAI 192250Z 01004KT 9000 BKN030 10/09 Q1022 NOSIG RMK RWY18C 00000KT RWY36R 35006KT RWY18L 36003KT
Conditions at: LTAI (ANTALYA (CIV/MIL, TR) observed 2250 UTC 19 January 2019
Temperature: 10.0°C (50°F)
Dewpoint: 9.0°C (48°F) [RH = 93%]
Pressure (altimeter): 30.18 inches Hg (1022.0 mb)
Winds: from the N (10 degrees) at 5 MPH (4 knots; 2.1 m/s)
Visibility: 6 miles ( 9 km)
Ceiling: 3000 feet AGL
Clouds: broken clouds at 3000 feet AGL
Weather: no significant weather observed at this time

METAR text: LTAI 192220Z VRB01KT 8000 BKN030 10/09 Q1023 NOSIG RMK RWY18C 00000KT RWY36R 00000KT RWY18L 01002KT
Conditions at: LTAI (ANTALYA (CIV/MIL, TR) observed 2220 UTC 19 January 2019
Temperature: 10.0°C (50°F)
Dewpoint: 9.0°C (48°F) [RH = 93%]
Pressure (altimeter): 30.21 inches Hg (1023.0 mb)
Winds: variable direction winds at 1 MPH (1 knots; 0.5 m/s)
Visibility: 5 miles ( 8 km)
Ceiling: 3000 feet AGL
Clouds: broken clouds at 3000 feet AGL
Weather: no significant weather observed at this time

METAR text: LTAI 192150Z VRB02KT 8000 BKN030 10/09 Q1023 RESHRA NOSIG RMK RWY18C 00000KT RWY36R 00000KT RWY18L 04004KT
Conditions at: LTAI (ANTALYA (CIV/MIL, TR) observed 2150 UTC 19 January 2019
Temperature: 10.0°C (50°F)
Dewpoint: 9.0°C (48°F) [RH = 93%]
Pressure (altimeter): 30.21 inches Hg (1023.0 mb)
Winds: variable direction winds at 2 MPH (2 knots; 1.0 m/s)
Visibility: 5 miles ( 8 km)
Ceiling: 3000 feet AGL
Clouds: broken clouds at 3000 feet AGL
Weather: no significant weather observed at this time

METAR text: LTAI 192120Z 35004KT 320V030 5000 -SHRA BR BKN030 10/09 Q1023 NOSIG RMK RWY18C VRB01KT RWY36R 36004KT RWY18L 03002KT
Conditions at: LTAI (ANTALYA (CIV/MIL, TR) observed 2120 UTC 19 January 2019
Temperature: 10.0°C (50°F)
Dewpoint: 9.0°C (48°F) [RH = 93%]
Pressure (altimeter): 30.21 inches Hg (1023.0 mb)
Winds: from the N (350 degrees) at 5 MPH (4 knots; 2.1 m/s)
Visibility: 3 miles ( 5 km)
Ceiling: 3000 feet AGL
Clouds: broken clouds at 3000 feet AGL
Weather: -SHRA BR  (light rain showers, mist)

METAR text: LTAI 192050Z 36004KT 5000 -SHRA BKN030 10/09 Q1023 NOSIG RMK RWY18C 35002KT RWY36R 01003KT RWY18L VRB02KT
Conditions at: LTAI (ANTALYA (CIV/MIL, TR) observed 2050 UTC 19 January 2019
Temperature: 10.0°C (50°F)
Dewpoint: 9.0°C (48°F) [RH = 93%]
Pressure (altimeter): 30.21 inches Hg (1023.0 mb)
Winds: from the N (360 degrees) at 5 MPH (4 knots; 2.1 m/s)
Visibility: 3 miles ( 5 km)
Ceiling: 3000 feet AGL
Clouds: broken clouds at 3000 feet AGL
Weather: -SHRA  (light rain showers)

METAR text: LTAI 192020Z 35005KT 4000 -SHRA BR BKN030 10/09 Q1023 NOSIG RMK RWY18C 00000KT RWY36R 36002KT RWY18L 34003KT
Conditions at: LTAI (ANTALYA (CIV/MIL, TR) observed 2020 UTC 19 January 2019
Temperature: 10.0°C (50°F)
Dewpoint: 9.0°C (48°F) [RH = 93%]
Pressure (altimeter): 30.21 inches Hg (1023.0 mb)
Winds: from the N (350 degrees) at 6 MPH (5 knots; 2.6 m/s)
Visibility: 2.49 miles (4.01 km)
Ceiling: 3000 feet AGL
Clouds: broken clouds at 3000 feet AGL
Weather: -SHRA BR  (light rain showers, mist)

METAR text: LTAI 191950Z 35003KT 4000 -SHRA BR BKN030 10/09 Q1023 NOSIG RMK RWY18C 36003KT 330V030 RWY36R VRB02KT RWY18L 02003KT
Conditions at: LTAI (ANTALYA (CIV/MIL, TR) observed 1950 UTC 19 January 2019
Temperature: 10.0°C (50°F)
Dewpoint: 9.0°C (48°F) [RH = 93%]
Pressure (altimeter): 30.21 inches Hg (1023.0 mb)
Winds: from the N (350 degrees) at 3 MPH (3 knots; 1.5 m/s)
Visibility: 2.49 miles (4.01 km)
Ceiling: 3000 feet AGL
Clouds: broken clouds at 3000 feet AGL
Weather: -SHRA BR  (light rain showers, mist)

METAR text: LTAI 191920Z 32004KT 5000 -SHRA BR BKN030 11/10 Q1023 NOSIG RMK RWY18C VRB04KT RWY36R 33003KT RWY18L 30005KT
Conditions at: LTAI (ANTALYA (CIV/MIL, TR) observed 1920 UTC 19 January 2019
Temperature: 11.0°C (52°F)
Dewpoint: 10.0°C (50°F) [RH = 94%]
Pressure (altimeter): 30.21 inches Hg (1023.0 mb)
Winds: from the NW (320 degrees) at 5 MPH (4 knots; 2.1 m/s)
Visibility: 3 miles ( 5 km)
Ceiling: 3000 feet AGL
Clouds: broken clouds at 3000 feet AGL
Weather: -SHRA BR  (light rain showers, mist)

METAR text: LTAI 191850Z 36004KT 4000 -SHRA BR BKN030 11/10 Q1022 NOSIG RMK RWY18C 30003KT 260V330 RWY36R 35005KT RWY18L 02003KT
Conditions at: LTAI (ANTALYA (CIV/MIL, TR) observed 1850 UTC 19 January 2019
Temperature: 11.0°C (52°F)
Dewpoint: 10.0°C (50°F) [RH = 94%]
Pressure (altimeter): 30.18 inches Hg (1022.0 mb)
Winds: from the N (360 degrees) at 5 MPH (4 knots; 2.1 m/s)
Visibility: 2.49 miles (4.01 km)
Ceiling: 3000 feet AGL
Clouds: broken clouds at 3000 feet AGL
Weather: -SHRA BR  (light rain showers, mist)

METAR text: LTAI 191820Z 07004KT 050V110 3400 -SHRA BR BKN030 11/09 Q1022 BECMG 9999
Conditions at: LTAI (ANTALYA (CIV/MIL, TR) observed 1820 UTC 19 January 2019
Temperature: 11.0°C (52°F)
Dewpoint: 9.0°C (48°F) [RH = 87%]
Pressure (altimeter): 30.18 inches Hg (1022.0 mb)
Winds: from the ENE (70 degrees) at 5 MPH (4 knots; 2.1 m/s)
Visibility: 2.11 miles (3.40 km)
Ceiling: 3000 feet AGL
Clouds: broken clouds at 3000 feet AGL
Weather: -SHRA BR  (light rain showers, mist)

METAR text: LTAI 191750Z VRB02KT 9999 -SHRA BKN030 11/09 Q1022 NOSIG RMK RWY18C 27001KT RWY36R 28004KT RWY18L VRB02KT
Conditions at: LTAI (ANTALYA (CIV/MIL, TR) observed 1750 UTC 19 January 2019
Temperature: 11.0°C (52°F)
Dewpoint: 9.0°C (48°F) [RH = 87%]
Pressure (altimeter): 30.18 inches Hg (1022.0 mb)
Winds: variable direction winds at 2 MPH (2 knots; 1.0 m/s)
Visibility: 6 or more miles (10+ km)
Ceiling: 3000 feet AGL
Clouds: broken clouds at 3000 feet AGL
Weather: -SHRA  (light rain showers)

METAR text: LTAI 191720Z VRB02KT 9999 -SHRA BKN030 11/09 Q1022 NOSIG RMK RWY18C 35003KT RWY36R VRB02KT RWY18L 36002KT
Conditions at: LTAI (ANTALYA (CIV/MIL, TR) observed 1720 UTC 19 January 2019
Temperature: 11.0°C (52°F)
Dewpoint: 9.0°C (48°F) [RH = 87%]
Pressure (altimeter): 30.18 inches Hg (1022.0 mb)
Winds: variable direction winds at 2 MPH (2 knots; 1.0 m/s)
Visibility: 6 or more miles (10+ km)
Ceiling: 3000 feet AGL
Clouds: broken clouds at 3000 feet AGL
Weather: -SHRA  (light rain showers)

METAR text: LTAI 191650Z 36004KT 9999 BKN030 11/09 Q1022 NOSIG RMK RWY18C 35004KT RWY36R 36004KT RWY18L 36002KT
Conditions at: LTAI (ANTALYA (CIV/MIL, TR) observed 1650 UTC 19 January 2019
Temperature: 11.0°C (52°F)
Dewpoint: 9.0°C (48°F) [RH = 87%]
Pressure (altimeter): 30.18 inches Hg (1022.0 mb)
Winds: from the N (360 degrees) at 5 MPH (4 knots; 2.1 m/s)
Visibility: 6 or more miles (10+ km)
Ceiling: 3000 feet AGL
Clouds: broken clouds at 3000 feet AGL
Weather: no significant weather observed at this time

METAR text: LTAI 191620Z 36004KT 9999 BKN030 11/09 Q1022 NOSIG RMK RWY18C 35005KT RWY36R 35005KT RWY18L 36003KT
Conditions at: LTAI (ANTALYA (CIV/MIL, TR) observed 1620 UTC 19 January 2019
Temperature: 11.0°C (52°F)
Dewpoint: 9.0°C (48°F) [RH = 87%]
Pressure (altimeter): 30.18 inches Hg (1022.0 mb)
Winds: from the N (360 degrees) at 5 MPH (4 knots; 2.1 m/s)
Visibility: 6 or more miles (10+ km)
Ceiling: 3000 feet AGL
Clouds: broken clouds at 3000 feet AGL
Weather: no significant weather observed at this time

METAR text: LTAI 191550Z 34004KT 9999 BKN030 12/08 Q1021 NOSIG RMK RWY18C 35004KT RWY36R 35004KT RWY18L 35003KT 320V030
Conditions at: LTAI (ANTALYA (CIV/MIL, TR) observed 1550 UTC 19 January 2019
Temperature: 12.0°C (54°F)
Dewpoint: 8.0°C (46°F) [RH = 76%]
Pressure (altimeter): 30.15 inches Hg (1021.0 mb)
Winds: from the NNW (340 degrees) at 5 MPH (4 knots; 2.1 m/s)
Visibility: 6 or more miles (10+ km)
Ceiling: 3000 feet AGL
Clouds: broken clouds at 3000 feet AGL
Weather: no significant weather observed at this time

METAR text: LTAI 191520Z 33005KT 290V350 9999 BKN030 12/08 Q1021 NOSIG RMK RWY18C 32004KT RWY36R 32005KT RWY18L 31005KT
Conditions at: LTAI (ANTALYA (CIV/MIL, TR) observed 1520 UTC 19 January 2019
Temperature: 12.0°C (54°F)
Dewpoint: 8.0°C (46°F) [RH = 76%]
Pressure (altimeter): 30.15 inches Hg (1021.0 mb)
Winds: from the NNW (330 degrees) at 6 MPH (5 knots; 2.6 m/s)
Visibility: 6 or more miles (10+ km)
Ceiling: 3000 feet AGL
Clouds: broken clouds at 3000 feet AGL
Weather: no significant weather observed at this time

METAR text: LTAI 191450Z 35003KT 320V020 9999 BKN030 12/09 Q1021 NOSIG RMK RWY18C 35004KT RWY36R 01003KT RWY18L 01004KT
Conditions at: LTAI (ANTALYA (CIV/MIL, TR) observed 1450 UTC 19 January 2019
Temperature: 12.0°C (54°F)
Dewpoint: 9.0°C (48°F) [RH = 82%]
Pressure (altimeter): 30.15 inches Hg (1021.0 mb)
Winds: from the N (350 degrees) at 3 MPH (3 knots; 1.5 m/s)
Visibility: 6 or more miles (10+ km)
Ceiling: 3000 feet AGL
Clouds: broken clouds at 3000 feet AGL
Weather: no significant weather observed at this time

METAR text: LTAI 191420Z VRB04KT 9999 BKN030 12/08 Q1021 RESHRA NOSIG RMK RWY18C 30003KT RWY36R 30004KT RWY18L 30003KT
Conditions at: LTAI (ANTALYA (CIV/MIL, TR) observed 1420 UTC 19 January 2019
Temperature: 12.0°C (54°F)
Dewpoint: 8.0°C (46°F) [RH = 76%]
Pressure (altimeter): 30.15 inches Hg (1021.0 mb)
Winds: variable direction winds at 5 MPH (4 knots; 2.1 m/s)
Visibility: 6 or more miles (10+ km)
Ceiling: 3000 feet AGL
Clouds: broken clouds at 3000 feet AGL
Weather: no significant weather observed at this time

METAR text: LTAI 191350Z VRB02KT 9999 -SHRA BKN030 13/06 Q1021 NOSIG RMK RWY18C VRB01KT RWY36R 00000KT RWY18L VRB01KT
Conditions at: LTAI (ANTALYA (CIV/MIL, TR) observed 1350 UTC 19 January 2019
Temperature: 13.0°C (55°F)
Dewpoint: 6.0°C (43°F) [RH = 62%]
Pressure (altimeter): 30.15 inches Hg (1021.0 mb)
Winds: variable direction winds at 2 MPH (2 knots; 1.0 m/s)
Visibility: 6 or more miles (10+ km)
Ceiling: 3000 feet AGL
Clouds: broken clouds at 3000 feet AGL
Weather: -SHRA  (light rain showers)

METAR text: LTAI 191320Z 00000KT 9999 -SHRA BKN030 13/07 Q1022 NOSIG RMK RWY18C 00000KT RWY36R 00000KT RWY18L 00000KT
Conditions at: LTAI (ANTALYA (CIV/MIL, TR) observed 1320 UTC 19 January 2019
Temperature: 13.0°C (55°F)
Dewpoint: 7.0°C (45°F) [RH = 67%]
Pressure (altimeter): 30.18 inches Hg (1022.0 mb)
Winds: calm
Visibility: 6 or more miles (10+ km)
Ceiling: 3000 feet AGL
Clouds: broken clouds at 3000 feet AGL
Weather: -SHRA  (light rain showers)

METAR text: LTAI 191250Z 00000KT 9999 -SHRA BKN030 13/08 Q1022 NOSIG RMK RWY18C 12003KT 060V180 RWY36R 00000KT RWY18L 00000KT
Conditions at: LTAI (ANTALYA (CIV/MIL, TR) observed 1250 UTC 19 January 2019
Temperature: 13.0°C (55°F)
Dewpoint: 8.0°C (46°F) [RH = 72%]
Pressure (altimeter): 30.18 inches Hg (1022.0 mb)
Winds: calm
Visibility: 6 or more miles (10+ km)
Ceiling: 3000 feet AGL
Clouds: broken clouds at 3000 feet AGL
Weather: -SHRA  (light rain showers)

METAR text: LTAI 191220Z 14003KT 9999 -SHRA BKN030 13/06 Q1021 NOSIG RMK RWY18C 12004KT 100V170 RWY36R 15002KT RWY18L 13003KT
Conditions at: LTAI (ANTALYA (CIV/MIL, TR) observed 1220 UTC 19 January 2019
Temperature: 13.0°C (55°F)
Dewpoint: 6.0°C (43°F) [RH = 62%]
Pressure (altimeter): 30.15 inches Hg (1021.0 mb)
Winds: from the SE (140 degrees) at 3 MPH (3 knots; 1.5 m/s)
Visibility: 6 or more miles (10+ km)
Ceiling: 3000 feet AGL
Clouds: broken clouds at 3000 feet AGL
Weather: -SHRA  (light rain showers)

METAR text: LTAI 191217Z 14003KT 9999 -SHRA BKN030 13/05 Q1021 NOSIG RMK RWY18C 13004KT RWY36R 15003KT RWY18L 13003KT
Conditions at: LTAI (ANTALYA (CIV/MIL, TR) observed 1217 UTC 19 January 2019
Temperature: 13.0°C (55°F)
Dewpoint: 5.0°C (41°F) [RH = 58%]
Pressure (altimeter): 30.15 inches Hg (1021.0 mb)
Winds: from the SE (140 degrees) at 3 MPH (3 knots; 1.5 m/s)
Visibility: 6 or more miles (10+ km)
Ceiling: 3000 feet AGL
Clouds: broken clouds at 3000 feet AGL
Weather: -SHRA  (light rain showers)

METAR text: LTAI 191150Z 13003KT 9999 BKN030 13/05 Q1021 NOSIG RMK RWY18C 14003KT 120V180 RWY36R 14003KT RWY18L 14003KT 110V170
Conditions at: LTAI (ANTALYA (CIV/MIL, TR) observed 1150 UTC 19 January 2019
Temperature: 13.0°C (55°F)
Dewpoint: 5.0°C (41°F) [RH = 58%]
Pressure (altimeter): 30.15 inches Hg (1021.0 mb)
Winds: from the SE (130 degrees) at 3 MPH (3 knots; 1.5 m/s)
Visibility: 6 or more miles (10+ km)
Ceiling: 3000 feet AGL
Clouds: broken clouds at 3000 feet AGL
Weather: no significant weather observed at this time

METAR text: LTAI 191120Z 11004KT 080V140 9999 BKN030 14/06 Q1021 NOSIG RMK RWY18C 09004KT 060V120 RWY36R 10004KT RWY18L 10003KT 060V130
Conditions at: LTAI (ANTALYA (CIV/MIL, TR) observed 1120 UTC 19 January 2019
Temperature: 14.0°C (57°F)
Dewpoint: 6.0°C (43°F) [RH = 58%]
Pressure (altimeter): 30.15 inches Hg (1021.0 mb)
Winds: from the ESE (110 degrees) at 5 MPH (4 knots; 2.1 m/s)
Visibility: 6 or more miles (10+ km)
Ceiling: 3000 feet AGL
Clouds: broken clouds at 3000 feet AGL
Weather: no significant weather observed at this time

Forecast for: LTAI (ANTALYA (CIV/MIL, TR)
Text: TAF LTAI 202240Z 2100/2124 VRB02KT 4000 -SHRA BKN025
Forecast period: 0000 UTC 21 January 2019 to 0000 UTC 22 January 2019
Forecast type: FROM: standard forecast or significant change
Winds: variable direction winds at 2 MPH (2 knots; 1.0 m/s)
Visibility: 2.49 miles (4.01 km)
Ceiling: 2500 feet AGL
Clouds: broken clouds at 2500 feet AGL
Weather: -SHRA  (light rain showers)
Text: BECMG 2100/2104 -TSRA FEW020CB BKN025
Forecast period: 0000 to 0600 UTC 21 January 2019
Forecast type: BECOMING: Conditions expected to become as follows by 0400 UTC 21 January 2019
Winds: variable direction winds at 2 MPH (2 knots; 1.0 m/s)
Visibility: 2.49 miles (4.01 km)
Ceiling: 2500 feet AGL
Clouds: few clouds at 2000 feet AGL
broken clouds at 2500 feet AGL
Weather: -TSRA  (light rain associated with thunderstorm(s))
Text: BECMG 2106/2109 9999 NSW BKN030
Forecast period: 0600 UTC 21 January 2019 to 0000 UTC 22 January 2019
Forecast type: BECOMING: Conditions expected to become as follows by 0900 UTC 21 January 2019
Winds: variable direction winds at 2 MPH (2 knots; 1.0 m/s)
Visibility: 6 or more miles 10+ km)
Ceiling: 3000 feet AGL
Clouds: broken clouds at 3000 feet AGL
Weather: NSW  (no significant weather)
Text: TEMPO 2110/2114 16015G25KT 4000 -TSRA FEW020CB BKN030
Forecast period: 1000 to 1400 UTC 21 January 2019
Forecast type: TEMPORARY: The following changes expected for less than half the time period
Winds: from the SSE (160 degrees) at 17 MPH (15 knots; 7.7 m/s)
gusting to 29 MPH (25 knots; 12.9 m/s)
Visibility: 2.49 miles (4.01 km)
Ceiling: 3000 feet AGL
Clouds: few clouds at 2000 feet AGL
broken clouds at 3000 feet AGL
Weather: -TSRA  (light rain associated with thunderstorm(s))